createdAt,value
2019-01-25T00:00:26.998Z,27.57
2019-01-25T00:02:59.452Z,26.90
2019-01-25T00:05:30.853Z,26.33
2019-01-25T00:08:01.754Z,24.77
2019-01-25T00:10:32.835Z,25.23
2019-01-25T00:13:03.896Z,27.13
2019-01-25T00:15:35.084Z,26.93
2019-01-25T00:18:06.306Z,24.23
2019-01-25T00:20:37.161Z,26.00
2019-01-25T00:23:08.208Z,26.90
2019-01-25T00:25:39.345Z,28.30
2019-01-25T00:28:10.086Z,26.43
2019-01-25T00:30:40.881Z,24.03
2019-01-25T00:33:11.716Z,27.30
2019-01-25T00:35:42.840Z,27.87
2019-01-25T00:38:13.657Z,23.77
2019-01-25T00:40:45.696Z,26.90
2019-01-25T00:43:16.896Z,24.57
2019-01-25T00:45:47.781Z,29.03
2019-01-25T00:48:18.319Z,24.30
2019-01-25T00:50:49.339Z,28.30
2019-01-25T00:53:20.401Z,27.37
2019-01-25T00:55:51.537Z,24.47
2019-01-25T00:58:22.275Z,26.90
2019-01-25T01:00:53.118Z,25.07
2019-01-25T01:03:25.737Z,25.97
2019-01-25T01:05:56.949Z,27.70
2019-01-25T01:08:28.198Z,24.67
2019-01-25T01:10:59.425Z,25.70
2019-01-25T01:13:30.312Z,27.10
2019-01-25T01:16:01.119Z,25.60
2019-01-25T01:18:32.044Z,27.50
2019-01-25T01:21:03.416Z,30.60
2019-01-25T01:23:34.265Z,25.00
2019-01-25T01:26:06.373Z,26.73
2019-01-25T01:28:37.313Z,21.87
2019-01-25T01:31:08.065Z,26.20
2019-01-25T01:33:38.883Z,26.37
2019-01-25T01:36:09.791Z,27.87
2019-01-25T01:38:40.802Z,25.93
2019-01-25T01:41:11.541Z,27.63
2019-01-25T01:43:42.312Z,25.30
2019-01-25T01:46:13.086Z,27.23
2019-01-25T01:48:44.134Z,26.17
2019-01-25T01:51:14.889Z,25.47
2019-01-25T01:53:45.812Z,27.60
2019-01-25T01:56:16.716Z,28.10
2019-01-25T01:58:47.728Z,27.40
2019-01-25T02:01:18.645Z,27.80
2019-01-25T02:03:50.165Z,24.27
2019-01-25T02:06:21.265Z,24.87
2019-01-25T02:08:52.065Z,24.70
2019-01-25T02:11:23.189Z,30.43
2019-01-25T02:13:53.880Z,32.40
2019-01-25T02:16:24.680Z,26.70
2019-01-25T02:18:55.801Z,27.33
2019-01-25T02:21:26.848Z,28.47
2019-01-25T02:23:57.704Z,29.53
2019-01-25T02:26:29.484Z,26.80
2019-01-25T02:29:00.121Z,29.53
2019-01-25T02:31:30.825Z,28.40
2019-01-25T02:34:02.050Z,28.50
2019-01-25T02:36:33.171Z,25.80
2019-01-25T02:39:05.422Z,29.57
2019-01-25T02:41:36.548Z,22.87
2019-01-25T02:44:07.493Z,26.27
2019-01-25T02:46:38.870Z,27.40
2019-01-25T02:49:09.558Z,31.87
2019-01-25T02:51:40.733Z,31.03
2019-01-25T02:54:11.585Z,25.70
2019-01-25T02:56:42.450Z,28.67
2019-01-25T02:59:13.268Z,26.77
2019-01-25T03:01:44.505Z,29.50
2019-01-25T03:04:15.392Z,29.30
2019-01-25T03:06:46.138Z,26.17
2019-01-25T03:09:17.072Z,26.27
2019-01-25T03:11:48.127Z,30.57
2019-01-25T03:14:18.800Z,26.27
2019-01-25T03:16:50.124Z,27.77
2019-01-25T03:19:21.345Z,29.10
2019-01-25T03:21:52.192Z,27.27
2019-01-25T03:24:23.217Z,25.77
2019-01-25T03:26:54.172Z,28.47
2019-01-25T03:29:27.368Z,28.43
2019-01-25T03:31:58.104Z,26.37
2019-01-25T03:34:28.925Z,26.07
2019-01-25T03:36:59.970Z,25.73
2019-01-25T03:39:31.660Z,23.87
2019-01-25T03:42:02.579Z,22.57
2019-01-25T03:44:35.517Z,27.50
2019-01-25T03:47:06.213Z,26.73
2019-01-25T03:49:37.217Z,26.67
2019-01-25T03:52:08.313Z,27.43
2019-01-25T03:54:39.411Z,28.57
2019-01-25T03:57:10.559Z,27.70
2019-01-25T03:59:41.324Z,23.97
2019-01-25T04:02:12.037Z,30.10
2019-01-25T04:04:43.068Z,29.90
2019-01-25T04:07:14.049Z,27.10
2019-01-25T04:09:45.050Z,22.93
2019-01-25T04:12:16.293Z,23.73
2019-01-25T04:14:46.891Z,25.63
2019-01-25T04:17:17.665Z,26.50
2019-01-25T04:19:48.522Z,26.97
2019-01-25T04:22:19.578Z,26.17
2019-01-25T04:24:50.685Z,25.60
2019-01-25T04:27:21.626Z,29.83
2019-01-25T04:30:13.281Z,26.43
2019-01-25T04:32:44.192Z,26.20
2019-01-25T04:35:15.568Z,29.17
2019-01-25T04:37:46.253Z,29.63
2019-01-25T04:40:17.285Z,28.43
2019-01-25T04:42:48.190Z,27.17
2019-01-25T04:45:20.031Z,23.80
2019-01-25T04:47:52.292Z,25.10
2019-01-25T04:50:25.172Z,23.33
2019-01-25T04:52:57.341Z,28.27
2019-01-25T04:55:29.882Z,27.83
2019-01-25T04:58:26.086Z,23.03
2019-01-25T05:00:59.315Z,25.70
2019-01-25T05:03:30.404Z,27.00
2019-01-25T05:06:01.301Z,25.00
2019-01-25T05:08:32.283Z,27.60
2019-01-25T05:11:04.842Z,32.10
2019-01-25T05:13:35.977Z,28.10
2019-01-25T05:16:09.423Z,25.00
2019-01-25T05:18:40.654Z,23.93
2019-01-25T05:21:19.546Z,27.63
2019-01-25T05:23:50.464Z,25.97
2019-01-25T05:26:21.765Z,23.10
2019-01-25T05:28:52.770Z,30.23
2019-01-25T05:31:29.762Z,25.77
2019-01-25T05:34:01.022Z,26.73
2019-01-25T05:36:31.950Z,28.30
2019-01-25T05:39:03.548Z,27.43
2019-01-25T05:41:34.540Z,23.80
2019-01-25T05:44:05.637Z,26.47
2019-01-25T05:46:36.756Z,24.97
2019-01-25T05:49:07.686Z,25.13
2019-01-25T05:51:38.448Z,26.50
2019-01-25T05:54:09.348Z,27.83
2019-01-25T05:56:43.665Z,26.87
2019-01-25T05:59:14.829Z,25.30
2019-01-25T06:01:46.944Z,27.37
2019-01-25T06:04:18.130Z,28.20
2019-01-25T06:06:49.317Z,25.50
2019-01-25T06:09:23.047Z,26.80
2019-01-25T06:11:53.842Z,26.67
2019-01-25T06:14:24.861Z,25.60
2019-01-25T06:16:55.560Z,28.57
2019-01-25T06:19:26.577Z,23.30
2019-01-25T06:21:58.188Z,27.10
2019-01-25T06:24:28.772Z,24.03
2019-01-25T06:27:01.892Z,24.80
2019-01-25T06:29:36.098Z,29.10
2019-01-25T06:32:07.041Z,24.87
2019-01-25T06:34:37.614Z,23.20
2019-01-25T06:37:09.147Z,25.60
2019-01-25T06:39:40.189Z,25.80
2019-01-25T06:42:11.432Z,23.93
2019-01-25T06:44:42.409Z,23.80
2019-01-25T06:47:13.449Z,25.07
2019-01-25T06:49:44.578Z,24.87
2019-01-25T06:52:15.349Z,26.30
2019-01-25T06:54:46.367Z,23.40
2019-01-25T06:57:33.338Z,24.43
2019-01-25T07:00:05.102Z,24.20
2019-01-25T07:02:38.442Z,25.20
2019-01-25T07:05:09.848Z,27.70
2019-01-25T07:07:43.510Z,25.40
2019-01-25T07:10:17.580Z,25.30
2019-01-25T07:12:48.632Z,23.70
2019-01-25T07:15:22.225Z,24.57
2019-01-25T07:17:53.081Z,23.67
2019-01-25T07:20:23.649Z,26.10
2019-01-25T07:22:56.638Z,26.93
2019-01-25T07:25:27.255Z,25.43
2019-01-25T07:27:58.082Z,30.07
2019-01-25T07:30:28.985Z,27.80
2019-01-25T07:32:59.760Z,29.57
2019-01-25T07:35:31.597Z,28.07
2019-01-25T07:38:02.994Z,27.17
2019-01-25T07:40:33.990Z,33.20
2019-01-25T07:43:04.647Z,25.03
2019-01-25T07:45:35.417Z,26.33
2019-01-25T07:48:06.694Z,29.93
2019-01-25T07:50:37.441Z,26.07
2019-01-25T07:53:08.485Z,31.33
2019-01-25T07:55:39.637Z,27.43
2019-01-25T07:58:10.652Z,28.47
2019-01-25T08:00:41.828Z,31.33
2019-01-25T08:03:13.256Z,27.87
2019-01-25T08:05:44.392Z,27.57
2019-01-25T08:08:15.537Z,28.83
2019-01-25T08:10:46.288Z,30.50
2019-01-25T08:13:17.278Z,29.07
2019-01-25T08:15:47.943Z,32.57
2019-01-25T08:18:18.989Z,27.20
2019-01-25T08:20:49.645Z,30.07
2019-01-25T08:23:20.885Z,32.93
2019-01-25T08:25:52.360Z,29.27
2019-01-25T08:28:23.336Z,29.73
2019-01-25T08:30:54.100Z,27.70
2019-01-25T08:33:25.250Z,30.03
2019-01-25T08:35:56.454Z,30.77
2019-01-25T08:38:27.744Z,30.30
2019-01-25T08:40:58.970Z,30.97
2019-01-25T08:43:29.924Z,32.97
2019-01-25T08:46:00.482Z,32.17
2019-01-25T08:48:31.273Z,31.00
2019-01-25T08:51:01.816Z,31.17
2019-01-25T08:53:33.065Z,26.53
2019-01-25T08:56:04.004Z,32.93
2019-01-25T08:58:35.904Z,31.07
2019-01-25T09:01:06.769Z,27.93
2019-01-25T09:03:37.512Z,32.07
2019-01-25T09:06:08.269Z,31.67
2019-01-25T09:08:39.362Z,33.27
2019-01-25T09:11:10.472Z,32.50
2019-01-25T09:13:41.609Z,34.10
2019-01-25T09:16:12.567Z,34.03
2019-01-25T09:18:43.213Z,36.50
2019-01-25T09:21:17.317Z,29.80
2019-01-25T09:23:49.573Z,31.10
2019-01-25T09:26:20.726Z,30.77
2019-01-25T09:28:51.490Z,33.63
2019-01-25T09:31:22.757Z,29.23
2019-01-25T09:33:53.500Z,30.07
2019-01-25T09:36:24.342Z,31.43
2019-01-25T09:38:55.190Z,33.47
2019-01-25T09:41:26.430Z,30.77
2019-01-25T09:43:57.177Z,27.57
2019-01-25T09:46:28.392Z,28.30
2019-01-25T09:49:00.109Z,29.97
2019-01-25T09:51:31.027Z,27.57
2019-01-25T09:54:01.788Z,32.43
2019-01-25T09:56:33.349Z,30.43
2019-01-25T09:59:04.792Z,28.67
2019-01-25T10:01:36.201Z,28.97
2019-01-25T10:04:08.135Z,26.07
2019-01-25T10:06:39.295Z,27.80
2019-01-25T10:09:19.050Z,26.60
2019-01-25T10:11:50.060Z,31.10
2019-01-25T10:14:24.261Z,28.53
2019-01-25T10:16:55.745Z,27.03
2019-01-25T10:19:26.969Z,26.23
2019-01-25T10:21:58.162Z,30.13
2019-01-25T10:24:29.411Z,26.57
2019-01-25T10:27:00.586Z,22.87
2019-01-25T10:29:33.072Z,26.43
2019-01-25T10:32:08.524Z,24.20
2019-01-25T10:34:40.584Z,23.67
2019-01-25T10:37:12.861Z,25.17
2019-01-25T10:39:45.430Z,26.40
2019-01-25T10:42:16.793Z,26.03
2019-01-25T10:44:48.036Z,23.87
2019-01-25T10:47:19.247Z,23.80
2019-01-25T10:49:53.065Z,24.63
2019-01-25T10:52:24.873Z,24.33
2019-01-25T10:54:57.040Z,25.97
2019-01-25T10:57:28.799Z,25.17
2019-01-25T10:59:59.824Z,24.30
2019-01-25T11:02:32.462Z,24.97
2019-01-25T11:05:03.849Z,23.00
2019-01-25T11:07:35.061Z,25.27
2019-01-25T11:10:06.982Z,23.80
2019-01-25T11:12:38.342Z,25.20
2019-01-25T11:15:11.488Z,25.00
2019-01-25T11:17:42.566Z,23.97
2019-01-25T11:20:15.946Z,26.07
2019-01-25T11:22:47.269Z,26.37
2019-01-25T11:25:24.117Z,25.13
2019-01-25T11:27:55.090Z,25.43
2019-01-25T11:30:26.631Z,23.53
2019-01-25T11:32:58.014Z,22.97
2019-01-25T11:35:29.103Z,19.30
2019-01-25T11:38:00.228Z,22.57
2019-01-25T11:40:33.840Z,18.77
2019-01-25T11:43:08.860Z,23.83
2019-01-25T11:45:38.119Z,24.13
2019-01-25T11:48:12.474Z,20.50
2019-01-25T11:50:43.714Z,24.27
2019-01-25T11:53:16.582Z,21.67
2019-01-25T11:55:47.707Z,20.40
2019-01-25T11:58:18.643Z,23.63
2019-01-25T12:00:50.241Z,22.60
2019-01-25T12:03:21.257Z,19.83
2019-01-25T12:05:52.366Z,22.60
2019-01-25T12:08:23.437Z,19.53
2019-01-25T12:10:54.588Z,18.50
2019-01-25T12:13:25.731Z,21.10
2019-01-25T12:15:57.153Z,20.00
2019-01-25T12:18:29.272Z,20.37
2019-01-25T12:21:01.315Z,20.07
2019-01-25T12:23:32.546Z,18.57
2019-01-25T12:26:03.225Z,20.13
2019-01-25T12:28:34.053Z,19.97
2019-01-25T12:31:05.150Z,19.90
2019-01-25T12:33:36.497Z,21.90
2019-01-25T12:36:07.260Z,21.67
2019-01-25T12:38:38.185Z,19.10
2019-01-25T12:41:09.395Z,20.90
2019-01-25T12:43:41.179Z,20.27
2019-01-25T12:46:14.752Z,22.87
2019-01-25T12:48:45.594Z,21.57
2019-01-25T12:51:26.312Z,21.90
2019-01-25T12:53:57.356Z,21.23
2019-01-25T12:56:28.661Z,20.53
2019-01-25T12:58:59.372Z,21.83
2019-01-25T13:01:34.935Z,21.20
2019-01-25T13:04:03.113Z,24.07
2019-01-25T13:06:34.381Z,18.43
2019-01-25T13:09:09.042Z,22.00
2019-01-25T13:11:39.829Z,19.87
2019-01-25T13:14:11.590Z,20.20
2019-01-25T13:16:42.837Z,24.80
2019-01-25T13:19:15.668Z,21.00
2019-01-25T13:21:46.544Z,21.93
2019-01-25T13:24:17.538Z,22.30
2019-01-25T13:26:48.120Z,21.57
2019-01-25T13:29:25.911Z,24.10
2019-01-25T13:31:51.780Z,24.00
2019-01-25T13:34:23.654Z,23.50
2019-01-25T13:36:57.219Z,22.67
2019-01-25T13:39:30.003Z,23.30
2019-01-25T13:42:00.910Z,24.57
2019-01-25T13:44:32.931Z,21.97
2019-01-25T13:47:04.109Z,25.47
2019-01-25T13:49:34.998Z,24.50
2019-01-25T13:52:05.790Z,23.57
2019-01-25T13:54:36.814Z,26.93
2019-01-25T13:57:07.946Z,24.53
2019-01-25T13:59:38.958Z,23.27
2019-01-25T14:02:10.233Z,22.57
2019-01-25T14:04:40.977Z,24.57
2019-01-25T14:07:12.100Z,25.23
2019-01-25T14:09:43.032Z,25.33
2019-01-25T14:12:13.755Z,25.67
2019-01-25T14:14:44.913Z,24.77
2019-01-25T14:17:16.082Z,24.37
2019-01-25T14:19:49.453Z,24.90
2019-01-25T14:22:20.204Z,24.97
2019-01-25T14:24:51.574Z,22.77
2019-01-25T14:27:22.649Z,23.30
2019-01-25T14:29:54.934Z,21.40
2019-01-25T14:32:25.772Z,24.23
2019-01-25T14:34:59.075Z,22.10
2019-01-25T14:37:30.655Z,26.70
2019-01-25T14:40:02.226Z,24.07
2019-01-25T14:42:39.737Z,22.43
2019-01-25T14:45:17.371Z,25.37
2019-01-25T14:47:53.560Z,23.13
2019-01-25T14:50:29.477Z,26.10
2019-01-25T14:53:04.788Z,23.30
2019-01-25T14:55:36.874Z,23.47
2019-01-25T14:58:14.398Z,25.23
2019-01-25T15:00:48.143Z,24.97
2019-01-25T15:03:19.393Z,26.30
2019-01-25T15:05:50.715Z,22.13
2019-01-25T15:08:34.774Z,23.33
2019-01-25T15:11:10.246Z,25.93
2019-01-25T15:13:43.751Z,23.57
2019-01-25T15:16:18.906Z,22.93
2019-01-25T15:18:50.226Z,21.77
2019-01-25T15:21:24.219Z,23.87
2019-01-25T15:23:55.376Z,22.03
2019-01-25T15:26:29.681Z,23.10
2019-01-25T15:29:00.914Z,23.13
2019-01-25T15:31:37.695Z,24.50
2019-01-25T15:34:10.408Z,24.13
2019-01-25T15:36:44.654Z,26.37
2019-01-25T15:39:16.062Z,23.13
2019-01-25T15:41:47.169Z,21.40
2019-01-25T15:44:18.433Z,24.07
2019-01-25T15:46:49.770Z,24.60
2019-01-25T15:49:21.308Z,23.27
2019-01-25T15:51:52.462Z,23.57
2019-01-25T15:54:24.946Z,21.70
2019-01-25T15:56:57.397Z,22.53
2019-01-25T15:59:28.477Z,23.53
2019-01-25T16:01:59.657Z,24.20
2019-01-25T16:04:35.058Z,25.30
2019-01-25T16:07:05.647Z,21.77
2019-01-25T16:09:36.546Z,23.27
2019-01-25T16:12:07.919Z,25.63
2019-01-25T16:14:39.470Z,21.50
2019-01-25T16:17:11.372Z,22.90
2019-01-25T16:19:43.796Z,25.50
2019-01-25T16:22:15.240Z,26.03
2019-01-25T16:24:46.370Z,24.03
2019-01-25T16:27:17.409Z,26.60
2019-01-25T16:29:48.393Z,22.03
2019-01-25T16:32:19.502Z,22.77
2019-01-25T16:34:50.809Z,25.37
2019-01-25T16:37:22.069Z,23.13
2019-01-25T16:39:53.422Z,23.10
2019-01-25T16:42:26.031Z,24.10
2019-01-25T16:44:57.150Z,25.10
2019-01-25T16:47:29.025Z,23.80
2019-01-25T16:49:59.917Z,23.03
2019-01-25T16:52:33.345Z,26.17
2019-01-25T16:55:05.005Z,22.37
2019-01-25T16:57:36.197Z,26.70
2019-01-25T17:00:14.693Z,23.13
2019-01-25T17:02:45.845Z,23.20
2019-01-25T17:05:17.205Z,23.70
2019-01-25T17:07:48.495Z,23.33
2019-01-25T17:10:19.573Z,24.13
2019-01-25T17:12:50.516Z,24.73
2019-01-25T17:15:21.902Z,24.07
2019-01-25T17:17:52.821Z,22.10
2019-01-25T17:20:23.781Z,24.23
2019-01-25T17:22:54.728Z,22.47
2019-01-25T17:25:25.772Z,26.60
2019-01-25T17:27:56.794Z,25.53
2019-01-25T17:30:30.044Z,23.50
2019-01-25T17:33:01.805Z,25.67
2019-01-25T17:35:33.235Z,28.17
2019-01-25T17:38:05.273Z,24.90
2019-01-25T17:40:46.097Z,25.23
2019-01-25T17:43:12.531Z,27.17
2019-01-25T17:45:43.265Z,26.57
2019-01-25T17:48:15.737Z,26.23
2019-01-25T17:50:46.830Z,24.00
2019-01-25T17:53:17.800Z,26.07
2019-01-25T17:55:48.947Z,24.73
2019-01-25T17:58:20.508Z,23.93
2019-01-25T18:00:56.286Z,26.63
2019-01-25T18:03:27.039Z,23.73
2019-01-25T18:05:57.836Z,21.47
2019-01-25T18:08:31.649Z,21.70
2019-01-25T18:11:02.500Z,23.77
2019-01-25T18:13:33.310Z,22.30
2019-01-25T18:16:04.777Z,22.90
2019-01-25T18:18:36.073Z,27.10
2019-01-25T18:21:06.760Z,22.03
2019-01-25T18:23:37.641Z,25.33
2019-01-25T18:26:36.636Z,25.83
2019-01-25T18:29:28.084Z,21.73
2019-01-25T18:32:02.330Z,24.50
2019-01-25T18:34:33.070Z,22.83
2019-01-25T18:37:04.004Z,24.57
2019-01-25T18:39:34.872Z,26.23
2019-01-25T18:42:05.857Z,27.17
2019-01-25T18:44:38.541Z,24.47
2019-01-25T18:47:09.679Z,24.50
2019-01-25T18:49:41.392Z,26.50
2019-01-25T18:52:13.541Z,25.10
2019-01-25T18:54:44.826Z,24.93
2019-01-25T18:57:15.482Z,26.23
2019-01-25T18:59:46.283Z,30.67
2019-01-25T19:02:17.257Z,28.23
2019-01-25T19:04:48.376Z,26.80
2019-01-25T19:07:19.101Z,30.30
2019-01-25T19:09:50.210Z,29.00
2019-01-25T19:12:20.909Z,27.97
2019-01-25T19:14:52.605Z,28.30
2019-01-25T19:17:23.303Z,25.43
2019-01-25T19:19:54.118Z,28.43
2019-01-25T19:22:25.077Z,26.23
2019-01-25T19:24:56.401Z,27.20
2019-01-25T19:27:28.285Z,28.37
2019-01-25T19:29:59.152Z,27.77
2019-01-25T19:32:29.866Z,25.50
2019-01-25T19:35:01.197Z,28.53
2019-01-25T19:37:32.156Z,26.93
2019-01-25T19:40:03.137Z,29.77
2019-01-25T19:42:34.337Z,25.67
2019-01-25T19:45:11.894Z,28.37
2019-01-25T19:47:38.778Z,25.07
2019-01-25T19:50:12.358Z,28.17
2019-01-25T19:52:43.526Z,25.37
2019-01-25T19:55:17.024Z,28.27
2019-01-25T19:57:49.117Z,24.87
2019-01-25T20:00:29.116Z,25.30
2019-01-25T20:02:59.958Z,24.97
2019-01-25T20:05:31.440Z,27.63
2019-01-25T20:08:02.507Z,28.20
2019-01-25T20:10:33.462Z,27.83
2019-01-25T20:13:04.563Z,28.13
2019-01-25T20:15:35.444Z,27.37
2019-01-25T20:18:06.508Z,26.77
2019-01-25T20:20:37.389Z,27.43
2019-01-25T20:23:08.509Z,25.37
2019-01-25T20:25:40.130Z,26.47
2019-01-25T20:28:12.018Z,32.87
2019-01-25T20:30:49.597Z,28.00
2019-01-25T20:33:16.148Z,24.33
2019-01-25T20:35:47.376Z,24.93
2019-01-25T20:38:18.330Z,26.70
2019-01-25T20:40:49.200Z,24.23
2019-01-25T20:43:20.006Z,25.30
2019-01-25T20:45:51.093Z,28.17
2019-01-25T20:48:22.111Z,26.37
2019-01-25T20:50:53.060Z,28.87
2019-01-25T20:53:23.679Z,24.67
2019-01-25T20:55:54.420Z,27.93
2019-01-25T20:58:25.030Z,25.27
2019-01-25T21:00:56.393Z,24.33
2019-01-25T21:03:27.571Z,25.63
2019-01-25T21:05:58.221Z,24.13
2019-01-25T21:08:31.212Z,27.80
2019-01-25T21:11:01.969Z,25.03
2019-01-25T21:13:32.742Z,25.20
2019-01-25T21:16:03.510Z,22.80
2019-01-25T21:18:34.164Z,26.03
2019-01-25T21:21:05.153Z,25.63
2019-01-25T21:23:36.134Z,25.83
2019-01-25T21:26:07.178Z,22.77
2019-01-25T21:28:38.061Z,24.70
2019-01-25T21:31:08.699Z,25.70
2019-01-25T21:33:39.957Z,23.93
2019-01-25T21:36:10.848Z,25.37
2019-01-25T21:38:41.588Z,23.87
2019-01-25T21:41:13.622Z,23.53
2019-01-25T21:43:44.949Z,24.30
2019-01-25T21:46:15.684Z,22.67
2019-01-25T21:48:46.409Z,22.03
2019-01-25T21:51:17.254Z,23.10
2019-01-25T21:53:48.587Z,22.00
2019-01-25T21:56:19.688Z,23.73
2019-01-25T21:58:50.469Z,21.57
2019-01-25T22:01:21.642Z,20.83
2019-01-25T22:03:52.768Z,22.23
2019-01-25T22:06:24.223Z,22.27
2019-01-25T22:08:55.157Z,22.30
2019-01-25T22:11:27.068Z,18.60
2019-01-25T22:13:57.836Z,20.23
2019-01-25T22:16:28.843Z,20.30
2019-01-25T22:19:00.041Z,21.03
2019-01-25T22:21:30.680Z,21.73
2019-01-25T22:24:02.022Z,21.50
2019-01-25T22:26:32.721Z,19.00
2019-01-25T22:29:03.579Z,20.73
2019-01-25T22:31:35.330Z,18.53
2019-01-25T22:34:17.665Z,18.90
2019-01-25T22:36:48.492Z,18.67
2019-01-25T22:39:19.117Z,21.27
2019-01-25T22:41:49.974Z,22.20
2019-01-25T22:44:21.238Z,22.20
2019-01-25T22:46:52.260Z,20.63
2019-01-25T22:49:22.888Z,22.67
2019-01-25T22:51:54.354Z,21.73
2019-01-25T22:54:25.482Z,17.87
2019-01-25T22:56:56.674Z,17.93
2019-01-25T22:59:27.324Z,18.50
2019-01-25T23:01:58.279Z,20.17
2019-01-25T23:04:41.917Z,18.20
2019-01-25T23:07:29.800Z,19.53
2019-01-25T23:10:02.701Z,18.60
2019-01-25T23:12:33.736Z,19.67
2019-01-25T23:15:05.424Z,18.30
2019-01-25T23:17:36.106Z,20.43
2019-01-25T23:20:08.834Z,17.00
2019-01-25T23:22:39.506Z,17.60
2019-01-25T23:25:11.161Z,17.00
2019-01-25T23:27:42.659Z,17.27
2019-01-25T23:30:16.236Z,16.57
2019-01-25T23:32:47.465Z,17.23
2019-01-25T23:35:18.500Z,15.93
2019-01-25T23:37:49.438Z,14.30
2019-01-25T23:40:21.412Z,18.57
2019-01-25T23:42:52.165Z,17.80
2019-01-25T23:45:22.990Z,16.00
2019-01-25T23:47:53.500Z,17.47
2019-01-25T23:50:24.848Z,16.73
2019-01-25T23:52:55.542Z,17.27
2019-01-25T23:55:27.588Z,14.47
2019-01-25T23:57:58.849Z,16.20
